Grass Creek, Wyoming
Current Conditions -  °F | °C
As of 2:15 AM on Wednesday 22 Oct 2014 (Local Time) from KTBX Reporting Station
Clear Clear  
Wind Chill: 34°   Ceiling: Unl
Heat Index: 41°   Visibility: 10mi
Dew Point: 14°   Wind: 12mph
Humidity: 33%   Direction: 10°N
Pressure: 30.11"   Gusts: NA
Location:  43.7189°N, 108.442°W
Report Text: KTBX 220815Z AUTO 01010KT 10SM CLR 05/M10 A3011 RMK AO2
Loading
Personal Weather Stations






























Interactive Weather Map
Tropical Storm Tracking
New forecast layout! Learn more

10-Day Weather Forecast

Advertisements
Track Severe Weather on mobile